createdAt,value
2023-02-23T02:09:08.009Z,99053.06
2023-02-23T02:11:54.396Z,99072.91
2023-02-23T02:15:31.538Z,99057.25
2023-02-23T12:58:19.234Z,99053.28
2023-02-23T13:29:25.136Z,99014.69
2023-02-23T13:31:52.239Z,99016.03
2023-02-23T13:49:46.439Z,99004.41
2023-02-23T13:52:21.093Z,99005.72
2023-02-23T13:55:03.631Z,98999.34
2023-02-23T13:57:35.647Z,98998.84
2023-02-23T14:00:02.631Z,98999.09
2023-02-23T14:02:43.644Z,98996.69
2023-02-23T14:05:22.752Z,99002.81
2023-02-23T14:07:53.325Z,98998.47
2023-02-23T14:10:25.195Z,99007.91
2023-02-23T14:13:13.097Z,99006.56
2023-02-23T14:15:39.819Z,98999.78
2023-02-23T14:18:21.418Z,98994.31
2023-02-23T14:21:12.981Z,98990.78
2023-02-23T14:23:42.532Z,98987.63
2023-02-23T14:26:16.991Z,98999.63
2023-02-23T14:28:49.145Z,98995.75
2023-02-23T14:31:20.652Z,98991.94
2023-02-23T14:33:49.661Z,98994.09
2023-02-23T14:36:22.410Z,98987.34
2023-02-23T14:39:01.264Z,98994.41
2023-02-23T14:41:40.036Z,98989.31
2023-02-23T14:44:41.295Z,98984.25
2023-02-23T14:47:12.421Z,98985.13
2023-02-23T14:49:44.216Z,98987.38
2023-02-23T14:52:25.769Z,98991.69
2023-02-23T14:55:13.093Z,98986.03
2023-02-23T14:57:41.845Z,98988.22
2023-02-23T15:00:15.059Z,98980.38
2023-02-23T15:02:56.364Z,98978.50
2023-02-23T15:05:25.722Z,98986.81
2023-02-23T15:07:54.503Z,98980.28
2023-02-23T15:10:43.212Z,98983.75
2023-02-23T15:13:11.880Z,98992.34
2023-02-23T15:15:45.538Z,98989.56
2023-02-23T15:18:21.646Z,98990.34
2023-02-23T15:20:48.909Z,98995.94
2023-02-23T15:23:17.407Z,98988.38
2023-02-23T15:25:48.020Z,98988.38
2023-02-23T15:28:28.034Z,98983.44
2023-02-23T15:30:56.559Z,98988.44
2023-02-23T15:33:28.262Z,98983.25
2023-02-23T15:36:07.198Z,98986.47
2023-02-23T15:38:44.165Z,98975.03
2023-02-23T15:41:26.682Z,98984.91
2023-02-23T15:43:53.539Z,98980.31
2023-02-23T15:46:27.081Z,98979.97
